Time;durP1;ratioP1;P1;durP2;ratioP2;P2;SDS_P1;SDS_P2;PMS_P1;PMS_P2;Temp;Humidity;BMP_temperature;BMP_pressure;BME280_temperature;BME280_humidity;BME280_pressure;Samples;Min_cycle;Max_cycle;Signal;HPM_P1;HPM_P2
2022/04/24 00:00:38;;;;;;;12.43;10.83;;;;;;;13.52;56.39;97180.25;4158521;28;20267;-59
2022/04/24 00:02:40;;;;;;;13.47;11.67;;;;;;;13.44;56.95;97192.09;4157615;28;20940;-58
2022/04/24 00:04:42;;;;;;;13.37;10.63;;;;;;;13.87;56.09;97152.50;4157629;28;20666;-59
2022/04/24 00:06:46;;;;;;;12.83;11.00;;;;;;;13.64;56.21;97166.81;4158043;28;20320;-60
2022/04/24 00:08:48;;;;;;;13.47;10.50;;;;;;;14.07;55.31;97133.31;4160402;28;20640;-60
2022/04/24 00:10:50;;;;;;;11.73;10.43;;;;;;;14.11;54.37;97089.81;4158182;28;20236;-60
2022/04/24 00:12:52;;;;;;;14.33;10.80;;;;;;;14.18;54.62;97096.84;4153341;28;20240;-59
2022/04/24 00:14:54;;;;;;;12.53;10.93;;;;;;;14.34;54.48;97114.69;4157781;28;20232;-60
2022/04/24 00:16:55;;;;;;;14.33;11.47;;;;;;;13.73;55.29;97144.78;4155908;28;20294;-60
2022/04/24 00:18:57;;;;;;;12.90;11.30;;;;;;;14.42;54.42;97094.75;4161628;28;20236;-59
2022/04/24 00:20:59;;;;;;;15.07;11.57;;;;;;;14.00;54.60;97130.00;4157748;28;20834;-60
2022/04/24 00:23:00;;;;;;;11.53;10.33;;;;;;;13.44;57.02;97202.78;4160116;28;20683;-59
2022/04/24 00:25:02;;;;;;;13.20;11.27;;;;;;;14.22;54.92;97128.16;4161889;28;20240;-59
2022/04/24 00:27:04;;;;;;;13.50;10.80;;;;;;;14.26;54.76;97117.78;4160723;28;20241;-59
2022/04/24 00:29:06;;;;;;;13.33;11.27;;;;;;;14.58;53.77;97068.97;4163581;28;20244;-58
2022/04/24 00:31:08;;;;;;;12.10;10.57;;;;;;;14.51;53.89;97074.53;4161001;28;20236;-60
2022/04/24 00:33:09;;;;;;;12.57;11.27;;;;;;;14.15;55.12;97148.91;4154640;28;20221;-60
2022/04/24 00:35:11;;;;;;;13.37;11.10;;;;;;;13.83;55.60;97157.53;4160308;28;20224;-59
2022/04/24 00:37:13;;;;;;;12.63;10.97;;;;;;;13.97;55.02;97133.97;4159633;28;20244;-60
2022/04/24 00:39:15;;;;;;;11.80;10.57;;;;;;;14.33;54.78;97108.53;4158241;28;20649;-58
2022/04/24 00:41:16;;;;;;;12.60;11.00;;;;;;;14.10;54.63;97100.75;4156303;28;20232;-59
2022/04/24 00:43:18;;;;;;;13.33;10.83;;;;;;;14.20;54.57;97090.19;4166495;28;20282;-58
2022/04/24 00:45:20;;;;;;;12.50;11.20;;;;;;;14.09;54.62;97099.94;4157231;28;20244;-60
2022/04/24 00:47:23;;;;;;;11.53;10.33;;;;;;;13.80;55.39;97135.81;4155928;28;20287;-58
2022/04/24 00:49:25;;;;;;;11.70;10.30;;;;;;;14.23;54.52;97115.63;4160382;28;20263;-59
2022/04/24 00:51:28;;;;;;;13.00;10.97;;;;;;;13.90;54.78;97126.09;4160679;28;20240;-60
2022/04/24 00:53:30;;;;;;;11.17;9.97;;;;;;;13.39;55.88;97168.78;4160100;28;20642;-59
2022/04/24 00:55:32;;;;;;;11.53;10.33;;;;;;;13.40;56.53;97196.31;4159868;28;20236;-59
2022/04/24 00:57:34;;;;;;;11.70;10.47;;;;;;;13.98;55.03;97132.13;4160618;28;20282;-59
2022/04/24 00:59:39;;;;;;;12.17;10.80;;;;;;;14.40;53.90;97081.63;4159858;28;20278;-60
2022/04/24 01:01:41;;;;;;;10.67;9.53;;;;;;;14.04;54.23;97091.03;4156552;28;20224;-60
2022/04/24 01:03:43;;;;;;;11.80;9.93;;;;;;;14.23;54.58;97105.75;4167948;28;20249;-59
2022/04/24 01:05:45;;;;;;;12.60;10.43;;;;;;;14.03;54.65;97133.00;4155549;28;20233;-59
2022/04/24 01:07:47;;;;;;;10.90;9.80;;;;;;;14.20;54.66;97122.25;4157565;28;20248;-60
2022/04/24 01:09:48;;;;;;;12.07;10.77;;;;;;;14.08;54.17;97092.97;4163786;28;20733;-59
2022/04/24 01:11:52;;;;;;;11.37;9.60;;;;;;;13.54;56.18;97168.25;4159653;28;20237;-60
2022/04/24 01:13:54;;;;;;;12.90;10.30;;;;;;;14.08;54.80;97129.59;4159199;28;20240;-58
2022/04/24 01:15:57;;;;;;;11.57;9.87;;;;;;;14.11;54.34;97111.19;4158479;28;20244;-59
2022/04/24 01:18:00;;;;;;;12.60;9.57;;;;;;;14.10;54.45;97120.25;4160258;28;20644;-60
2022/04/24 01:20:02;;;;;;;11.13;9.80;;;;;;;14.37;53.80;97081.31;4160201;28;20232;-57
2022/04/24 01:22:04;;;;;;;11.90;10.53;;;;;;;14.72;53.25;97062.19;4153014;28;20282;-59
2022/04/24 01:24:07;;;;;;;11.03;9.63;;;;;;;14.14;54.09;97096.53;4159048;28;20534;-58
2022/04/24 01:26:09;;;;;;;13.03;9.23;;;;;;;14.26;54.20;97113.28;4153581;28;20252;-58
2022/04/24 01:28:11;;;;;;;10.10;9.00;;;;;;;14.15;54.61;97132.88;4155954;28;20229;-57
2022/04/24 01:30:12;;;;;;;11.80;9.90;;;;;;;14.40;53.56;97091.53;4159104;28;20248;-58
2022/04/24 01:32:14;;;;;;;12.53;9.53;;;;;;;14.79;52.74;97046.78;4156449;28;20224;-59
2022/04/24 01:34:17;;;;;;;10.33;9.33;;;;;;;14.18;54.10;97120.91;4155713;28;20225;-59
2022/04/24 01:36:19;;;;;;;10.93;9.57;;;;;;;14.07;54.78;97174.22;4161335;28;20233;-58
2022/04/24 01:38:21;;;;;;;11.37;8.90;;;;;;;14.66;53.15;97068.53;4159853;28;20236;-58
2022/04/24 01:40:22;;;;;;;10.90;9.73;;;;;;;14.18;54.40;97127.06;4164003;28;20240;-58
2022/04/24 01:42:24;;;;;;;10.77;8.93;;;;;;;14.36;54.01;97133.97;4153680;28;20284;-58
2022/04/24 01:44:26;;;;;;;10.70;9.20;;;;;;;14.65;53.36;97089.13;4157379;28;20236;-58
2022/04/24 01:46:27;;;;;;;10.23;8.73;;;;;;;14.35;53.88;97152.94;4159623;28;20240;-59
2022/04/24 01:48:30;;;;;;;10.60;9.50;;;;;;;14.94;52.54;97056.81;4159446;28;20312;-60
2022/04/24 01:50:32;;;;;;;10.97;9.47;;;;;;;14.87;52.50;97091.81;4155654;28;20286;-58
2022/04/24 01:52:33;;;;;;;10.97;9.30;;;;;;;14.13;53.50;97137.66;4158199;28;20228;-59
2022/04/24 01:54:35;;;;;;;9.77;8.77;;;;;;;14.39;53.98;97159.41;4155132;28;20241;-57
2022/04/24 01:56:37;;;;;;;10.53;8.97;;;;;;;14.29;54.08;97160.88;4155638;28;20244;-59
2022/04/24 01:58:39;;;;;;;10.47;9.23;;;;;;;14.37;54.17;97140.13;4159113;28;20245;-59
2022/04/24 02:00:41;;;;;;;10.23;9.03;;;;;;;14.04;55.44;97177.38;4155695;28;20856;-59
2022/04/24 02:02:42;;;;;;;11.00;8.90;;;;;;;14.74;53.80;97102.06;4152731;28;20671;-59
2022/04/24 02:04:44;;;;;;;11.23;10.03;;;;;;;14.85;53.43;97048.44;4158391;28;20642;-60
2022/04/24 02:06:46;;;;;;;11.40;8.67;;;;;;;14.85;54.16;97075.19;4158671;28;20236;-60
2022/04/24 02:08:48;;;;;;;11.50;9.90;;;;;;;15.03;53.47;97041.09;4160045;28;20294;-58
2022/04/24 02:10:50;;;;;;;10.60;9.27;;;;;;;14.51;55.32;97131.50;4157098;28;20779;-59
2022/04/24 02:12:51;;;;;;;10.93;9.47;;;;;;;13.99;56.85;97155.09;4159422;28;20237;-60
2022/04/24 02:14:53;;;;;;;11.33;9.10;;;;;;;14.17;56.39;97157.50;4155482;28;20626;-60
2022/04/24 02:16:54;;;;;;;13.30;10.13;;;;;;;14.33;56.54;97140.63;4158931;28;20259;-60
2022/04/24 02:18:56;;;;;;;10.27;9.23;;;;;;;14.82;54.24;97050.81;4159262;28;20294;-58
2022/04/24 02:20:58;;;;;;;10.40;9.33;;;;;;;14.34;55.83;97125.38;4159246;28;20291;-59
2022/04/24 02:23:00;;;;;;;10.23;9.00;;;;;;;13.98;56.87;97166.84;4157991;28;20636;-59
2022/04/24 02:25:04;;;;;;;10.03;9.00;;;;;;;14.71;54.78;97108.72;4154664;28;20233;-59
2022/04/24 02:27:06;;;;;;;11.17;10.03;;;;;;;15.32;53.06;97033.59;4158493;28;20240;-58
2022/04/24 02:29:08;;;;;;;10.53;9.43;;;;;;;14.94;54.22;97062.16;4152092;28;20232;-59
2022/04/24 02:31:09;;;;;;;10.20;9.20;;;;;;;13.76;56.79;97178.22;4158899;28;20282;-57
2022/04/24 02:33:11;;;;;;;12.33;9.17;;;;;;;13.62;56.95;97219.63;4155658;28;20237;-56
2022/04/24 02:35:13;;;;;;;10.97;9.23;;;;;;;14.38;55.05;97118.50;4158859;28;20290;-59
2022/04/24 02:37:14;;;;;;;11.23;9.70;;;;;;;14.92;54.66;97068.81;4151618;28;20259;-62
2022/04/24 02:39:16;;;;;;;11.10;9.50;;;;;;;14.72;54.94;97098.84;4158905;28;20224;-60
2022/04/24 02:41:18;;;;;;;11.87;10.10;;;;;;;14.78;54.42;97082.63;4157298;28;20225;-60
2022/04/24 02:43:19;;;;;;;11.90;9.97;;;;;;;14.59;54.83;97100.81;4153348;28;20293;-57
2022/04/24 02:45:21;;;;;;;12.03;9.70;;;;;;;14.51;55.41;97125.31;4153591;28;20259;-60
2022/04/24 02:47:23;;;;;;;11.77;9.67;;;;;;;15.18;53.73;97041.22;4155202;28;20240;-59
2022/04/24 02:49:24;;;;;;;11.20;9.90;;;;;;;14.75;54.68;97109.88;4159101;28;20255;-60
2022/04/24 02:51:26;;;;;;;11.43;9.17;;;;;;;14.52;55.87;97143.78;4157140;28;20294;-59
2022/04/24 02:53:28;;;;;;;12.40;10.20;;;;;;;13.91;56.59;97177.69;4146543;28;20702;-59
2022/04/24 02:55:29;;;;;;;11.37;10.17;;;;;;;14.19;56.61;97189.31;4158030;28;20225;-59
2022/04/24 02:57:33;;;;;;;10.87;9.67;;;;;;;13.88;57.34;97205.69;4158412;28;20282;-59
2022/04/24 02:59:34;;;;;;;10.30;9.10;;;;;;;14.08;56.49;97175.00;4158849;28;20232;-59
2022/04/24 03:01:36;;;;;;;10.77;9.53;;;;;;;14.97;54.56;97071.56;4159327;28;20240;-59
2022/04/24 03:03:38;;;;;;;13.50;9.33;;;;;;;14.79;54.80;97073.53;4158492;28;20224;-58
2022/04/24 03:05:40;;;;;;;11.70;10.50;;;;;;;14.43;55.57;97139.16;4158344;28;20229;-59
2022/04/24 03:07:42;;;;;;;10.43;9.37;;;;;;;14.28;56.62;97179.84;4158765;28;20689;-58
2022/04/24 03:09:44;;;;;;;11.87;9.87;;;;;;;14.26;56.84;97174.75;4158487;28;20237;-58
2022/04/24 03:11:46;;;;;;;10.67;9.10;;;;;;;14.42;56.51;97156.22;4157411;28;20722;-59
2022/04/24 03:13:47;;;;;;;11.23;10.00;;;;;;;14.02;57.03;97158.06;4156728;28;20244;-59
2022/04/24 03:15:49;;;;;;;11.03;9.83;;;;;;;14.84;54.81;97067.44;4159063;28;20240;-58
2022/04/24 03:17:54;;;;;;;11.13;10.03;;;;;;;14.45;55.97;97134.34;4157954;28;20782;-57
2022/04/24 03:19:56;;;;;;;10.97;9.40;;;;;;;14.57;56.26;97139.59;4156702;28;20290;-59
2022/04/24 03:21:57;;;;;;;10.63;9.50;;;;;;;14.93;54.63;97092.66;4158228;28;20737;-59
2022/04/24 03:23:59;;;;;;;11.90;10.00;;;;;;;14.98;54.49;97079.31;4158612;28;20236;-58
2022/04/24 03:26:01;;;;;;;10.97;9.83;;;;;;;14.29;56.08;97147.53;4150933;28;20600;-60
2022/04/24 03:28:03;;;;;;;11.13;9.70;;;;;;;14.31;56.03;97148.06;4153971;28;20241;-59
2022/04/24 03:30:06;;;;;;;11.53;9.80;;;;;;;14.45;55.63;97147.72;4158787;28;20236;-59
2022/04/24 03:32:08;;;;;;;11.07;9.23;;;;;;;14.27;55.75;97159.50;4152854;28;20767;-60
2022/04/24 03:36:17;;;;;;;14.03;9.87;;;;;;;15.36;53.27;97040.03;4153726;28;20666;-35
2022/04/24 03:38:19;;;;;;;11.10;9.90;;;;;;;15.41;53.21;97048.13;4156228;28;20233;-36
2022/04/24 03:40:21;;;;;;;10.67;9.53;;;;;;;15.45;52.85;97056.44;4156941;28;20279;-36
2022/04/24 03:42:22;;;;;;;12.00;10.40;;;;;;;14.73;54.62;97111.97;4151674;28;20230;-33
2022/04/24 03:44:25;;;;;;;12.37;10.30;;;;;;;13.62;58.93;97267.69;4152748;28;20240;-34
2022/04/24 03:46:26;;;;;;;12.83;10.40;;;;;;;13.72;58.72;97252.69;4160433;28;20298;-32
2022/04/24 03:48:28;;;;;;;11.23;9.87;;;;;;;13.90;58.93;97240.16;4158443;28;20244;-35
2022/04/24 03:50:30;;;;;;;10.60;9.50;;;;;;;14.38;57.54;97166.63;4157503;28;20274;-32
2022/04/24 03:52:32;;;;;;;11.17;9.97;;;;;;;14.31;57.84;97161.44;4155676;28;20754;-33
2022/04/24 03:54:34;;;;;;;10.03;9.03;;;;;;;14.41;57.12;97157.28;4155649;28;20238;-33
2022/04/24 03:56:37;;;;;;;15.13;10.13;;;;;;;14.33;57.34;97162.00;4158812;28;20239;-33
2022/04/24 03:58:39;;;;;;;11.93;10.07;;;;;;;14.27;57.22;97187.03;4160243;28;20235;-34
2022/04/24 04:00:40;;;;;;;13.33;9.43;;;;;;;14.38;57.11;97157.75;4156634;28;20229;-33
2022/04/24 04:02:46;;;;;;;12.60;11.10;;;;;;;14.58;56.37;97147.34;4152556;28;20240;-33
2022/04/24 04:04:48;;;;;;;11.57;10.17;;;;;;;14.84;55.54;97119.06;4160169;28;20240;-34
2022/04/24 04:06:50;;;;;;;10.83;9.70;;;;;;;14.47;56.23;97150.94;4160711;28;20232;-35
2022/04/24 04:08:51;;;;;;;11.40;9.97;;;;;;;14.07;57.16;97224.97;4159532;28;20245;-37
2022/04/24 04:10:54;;;;;;;12.40;10.30;;;;;;;13.88;57.48;97240.41;4159334;28;20237;-32
2022/04/24 04:12:56;;;;;;;12.13;10.93;;;;;;;13.64;58.56;97273.63;4159751;28;20240;-38
2022/04/24 04:15:02;;;;;;;12.30;10.83;;;;;;;13.23;59.72;97303.03;4160298;28;20240;-36
2022/04/24 04:17:05;;;;;;;13.53;11.27;;;;;;;13.66;58.84;97261.63;4158097;28;20747;-37
2022/04/24 04:19:06;;;;;;;13.60;11.70;;;;;;;13.44;59.60;97293.53;4158559;28;20359;-33
2022/04/24 04:21:08;;;;;;;15.83;12.13;;;;;;;13.65;59.19;97264.56;4160256;28;20236;-39
2022/04/24 04:23:10;;;;;;;13.50;12.07;;;;;;;13.94;58.39;97212.75;4158981;28;20737;-33
2022/04/24 04:25:12;;;;;;;12.83;11.47;;;;;;;13.90;58.64;97222.28;4160062;28;20241;-34
2022/04/24 04:27:14;;;;;;;14.27;12.47;;;;;;;13.72;59.11;97244.66;4156269;28;20306;-32
2022/04/24 04:29:15;;;;;;;14.00;12.10;;;;;;;14.22;58.35;97189.63;4159404;28;20225;-34
2022/04/24 04:31:17;;;;;;;14.67;13.07;;;;;;;14.11;58.28;97193.22;4157261;28;20232;-35
2022/04/24 04:33:19;;;;;;;14.20;12.77;;;;;;;14.08;58.75;97223.91;4151564;28;20280;-34
2022/04/24 04:35:23;;;;;;;13.87;12.37;;;;;;;14.62;57.91;97164.50;4151337;28;20286;-37
2022/04/24 04:37:26;;;;;;;13.13;11.73;;;;;;;14.08;58.54;97209.75;4157410;28;20232;-33
2022/04/24 04:39:27;;;;;;;14.27;12.67;;;;;;;14.25;58.04;97191.03;4158487;28;20644;-35
2022/04/24 04:41:29;;;;;;;13.00;11.70;;;;;;;14.05;58.41;97212.91;4158282;28;20252;-35
2022/04/24 04:43:31;;;;;;;14.37;12.87;;;;;;;14.00;58.81;97245.69;4149774;28;20237;-34
2022/04/24 04:45:33;;;;;;;14.80;12.47;;;;;;;13.94;58.86;97225.28;4159725;28;20236;-37
2022/04/24 04:47:34;;;;;;;13.90;12.40;;;;;;;14.59;57.45;97183.72;4159759;28;20291;-33
2022/04/24 04:49:36;;;;;;;13.80;12.30;;;;;;;14.62;57.44;97161.84;4155571;28;20248;-33
2022/04/24 04:51:38;;;;;;;14.23;12.53;;;;;;;14.67;56.68;97159.22;4159089;28;20266;-37
2022/04/24 04:53:40;;;;;;;13.43;11.97;;;;;;;14.66;56.68;97176.34;4152876;28;20287;-34
2022/04/24 04:55:42;;;;;;;13.30;11.90;;;;;;;14.92;56.00;97149.09;4157005;28;20248;-38
2022/04/24 04:57:44;;;;;;;14.40;11.93;;;;;;;14.72;55.72;97163.03;4160029;28;20732;-32
2022/04/24 04:59:46;;;;;;;14.23;12.00;;;;;;;14.40;57.15;97217.16;4159731;28;20604;-33
2022/04/24 05:01:48;;;;;;;12.83;11.43;;;;;;;14.40;56.58;97219.84;4154862;28;20236;-34
2022/04/24 05:03:50;;;;;;;13.83;11.83;;;;;;;14.09;57.56;97246.09;4156125;28;20248;-34
2022/04/24 05:05:51;;;;;;;16.13;12.60;;;;;;;13.32;60.17;97340.81;4158343;28;20805;-35
2022/04/24 05:07:53;;;;;;;14.73;12.20;;;;;;;12.77;62.79;97379.34;4155355;28;20307;-35
2022/04/24 05:09:55;;;;;;;11.70;10.50;;;;;;;12.80;62.53;97390.34;4158070;28;20243;-35
2022/04/24 05:11:56;;;;;;;10.67;8.33;;;;;;;12.66;63.48;97400.41;4159738;28;20320;-36
2022/04/24 05:13:58;;;;;;;9.13;7.33;;;;;;;12.46;64.26;97410.59;4158285;28;20299;-38
2022/04/24 05:16:06;;;;;;;5.13;4.00;;;;;;;12.42;64.28;97430.72;4159849;28;20244;-35
2022/04/24 05:18:08;;;;;;;4.57;3.73;;;;;;;12.03;65.05;97439.06;4159272;28;20243;-39
2022/04/24 05:20:11;;;;;;;5.50;3.23;;;;;;;12.22;65.12;97445.16;4159159;28;20938;-38
2022/04/24 05:22:13;;;;;;;3.03;2.63;;;;;;;12.36;64.51;97411.16;4152004;28;20240;-33
2022/04/24 05:24:15;;;;;;;3.20;2.40;;;;;;;12.02;65.38;97445.44;4158942;28;20246;-38
2022/04/24 05:26:17;;;;;;;3.23;2.13;;;;;;;12.07;65.20;97434.09;4158729;28;20236;-38
2022/04/24 05:28:18;;;;;;;2.30;1.70;;;;;;;12.05;65.38;97438.81;4158611;28;20240;-39
2022/04/24 05:30:20;;;;;;;2.00;1.70;;;;;;;11.52;67.06;97459.69;4159635;28;20236;-39
2022/04/24 05:32:22;;;;;;;2.20;1.97;;;;;;;11.69;66.61;97459.09;4150978;28;20288;-36
2022/04/24 05:34:24;;;;;;;4.57;1.50;;;;;;;11.46;67.29;97473.91;4141692;28;20253;-37
2022/04/24 05:36:25;;;;;;;2.07;1.60;;;;;;;12.21;65.56;97408.91;4144526;28;20658;-34
2022/04/24 05:38:27;;;;;;;2.57;2.00;;;;;;;11.97;66.29;97455.94;4157883;28;20248;-42
2022/04/24 05:40:29;;;;;;;2.40;1.80;;;;;;;11.82;66.59;97455.50;4158080;28;20230;-39
2022/04/24 05:42:31;;;;;;;2.87;2.17;;;;;;;11.50;67.80;97485.72;4144648;28;20846;-37
2022/04/24 05:44:32;;;;;;;2.00;1.63;;;;;;;11.44;68.40;97486.63;4142682;28;20287;-33
2022/04/24 05:46:34;;;;;;;1.87;1.70;;;;;;;12.20;66.27;97401.97;4141698;28;20724;-36
2022/04/24 05:48:36;;;;;;;2.83;1.90;;;;;;;12.67;64.83;97337.25;4142641;28;20252;-36
2022/04/24 05:50:37;;;;;;;1.83;1.57;;;;;;;12.08;66.57;97430.38;4137069;28;20241;-37
2022/04/24 05:52:40;;;;;;;2.00;1.70;;;;;;;11.92;67.40;97447.81;4138694;28;20300;-38
2022/04/24 05:54:42;;;;;;;2.20;1.90;;;;;;;12.41;66.04;97381.16;4152736;28;20240;-36
2022/04/24 05:56:44;;;;;;;1.97;1.60;;;;;;;12.40;66.25;97390.97;4155039;28;20240;-34
2022/04/24 05:58:46;;;;;;;1.70;1.60;;;;;;;12.16;66.97;97421.28;4157361;28;20239;-36
2022/04/24 06:00:48;;;;;;;1.83;1.73;;;;;;;12.09;67.26;97435.50;4155703;28;20298;-35
2022/04/24 06:02:50;;;;;;;2.70;1.73;;;;;;;12.30;66.67;97404.03;4158130;28;20240;-38
2022/04/24 06:04:53;;;;;;;2.97;1.90;;;;;;;12.16;66.92;97413.28;4158060;28;20268;-35
2022/04/24 06:06:55;;;;;;;2.00;1.80;;;;;;;11.99;67.47;97434.41;4158013;28;20248;-37
2022/04/24 06:08:57;;;;;;;1.80;1.70;;;;;;;11.71;68.87;97459.69;4144577;28;20306;-36
2022/04/24 06:10:59;;;;;;;2.90;2.00;;;;;;;12.08;67.56;97411.75;4142121;28;20701;-35
2022/04/24 06:13:01;;;;;;;3.63;2.40;;;;;;;12.01;67.48;97419.00;4140466;28;20291;-33
2022/04/24 06:15:04;;;;;;;2.13;2.00;;;;;;;12.18;67.60;97393.34;4143042;28;20976;-36
2022/04/24 06:17:06;;;;;;;6.00;4.00;;;;;;;12.41;66.50;97370.50;4142191;28;20237;-34
2022/04/24 06:19:07;;;;;;;6.20;3.40;;;;;;;12.20;67.11;97396.63;4141828;28;20248;-33
2022/04/24 06:21:09;;;;;;;4.73;3.00;;;;;;;12.27;67.01;97388.53;4140395;28;20252;-37
2022/04/24 06:23:11;;;;;;;3.53;2.40;;;;;;;12.23;67.08;97409.47;4156084;28;20237;-40
2022/04/24 06:25:20;;;;;;;4.30;3.30;;;;;;;12.24;67.43;97403.13;4157570;28;20303;-36
2022/04/24 06:27:21;;;;;;;3.10;2.80;;;;;;;11.60;69.40;97452.47;4154322;28;20251;-36
2022/04/24 06:29:23;;;;;;;2.63;2.43;;;;;;;11.79;68.91;97451.41;4140978;28;20224;-37
2022/04/24 06:31:25;;;;;;;4.77;2.30;;;;;;;12.03;67.94;97406.28;4141420;28;20248;-36
2022/04/24 06:33:27;;;;;;;4.47;3.60;;;;;;;11.74;69.34;97449.41;4141871;28;20248;-34
2022/04/24 06:35:29;;;;;;;3.13;2.70;;;;;;;11.89;68.64;97421.63;4141967;28;20306;-35
2022/04/24 06:37:31;;;;;;;2.90;2.60;;;;;;;12.05;67.98;97391.72;4141032;28;20233;-33
2022/04/24 06:39:34;;;;;;;2.03;1.83;;;;;;;11.63;69.19;97450.16;4142151;28;20227;-33
2022/04/24 06:41:35;;;;;;;4.00;2.30;;;;;;;12.11;68.50;97389.97;4140782;28;20233;-37
2022/04/24 06:43:37;;;;;;;2.20;2.00;;;;;;;12.10;68.41;97404.34;4136745;28;20284;-37
2022/04/24 06:45:41;;;;;;;3.70;1.80;;;;;;;12.20;68.58;97380.66;4138554;28;20292;-33
2022/04/24 06:47:43;;;;;;;2.20;2.00;;;;;;;12.05;68.72;97406.84;4141957;28;20229;-35
2022/04/24 06:49:45;;;;;;;2.20;2.00;;;;;;;11.49;70.22;97449.50;4142649;28;20842;-36
2022/04/24 06:51:46;;;;;;;3.10;2.47;;;;;;;12.29;68.49;97357.16;4157822;28;20656;-35
2022/04/24 06:53:48;;;;;;;3.57;2.00;;;;;;;12.13;68.39;97382.56;4157923;28;20243;-37
2022/04/24 06:55:53;;;;;;;2.03;1.90;;;;;;;12.32;68.31;97367.34;4155701;28;20236;-37
2022/04/24 06:57:55;;;;;;;3.60;2.10;;;;;;;12.44;67.87;97349.53;4156465;28;20795;-35
2022/04/24 06:59:57;;;;;;;2.87;1.73;;;;;;;12.86;66.88;97319.28;4158053;28;20236;-37
2022/04/24 07:01:59;;;;;;;2.00;1.90;;;;;;;12.77;66.68;97315.34;4156492;28;20282;-33
2022/04/24 07:04:01;;;;;;;2.40;2.10;;;;;;;13.09;65.68;97297.13;4156315;28;20247;-33
2022/04/24 07:06:03;;;;;;;3.33;2.30;;;;;;;12.74;66.51;97335.28;4157616;28;20232;-34
2022/04/24 07:08:05;;;;;;;2.40;2.20;;;;;;;12.35;67.92;97387.38;4157358;28;20236;-35
2022/04/24 07:10:10;;;;;;;2.17;2.07;;;;;;;12.44;67.41;97370.84;4156275;28;20653;-32
2022/04/24 07:12:11;;;;;;;4.33;2.00;;;;;;;12.31;67.93;97404.88;4157290;28;20247;-36
2022/04/24 07:14:13;;;;;;;3.27;2.30;;;;;;;12.31;68.67;97408.34;4157023;28;20347;-38
2022/04/24 07:16:15;;;;;;;2.80;2.53;;;;;;;12.57;68.12;97371.66;4157170;28;20709;-39
2022/04/24 07:18:17;;;;;;;4.50;2.50;;;;;;;12.03;68.94;97422.25;4156386;28;20271;-35
2022/04/24 07:20:19;;;;;;;2.63;2.40;;;;;;;12.08;69.46;97414.41;4160775;28;20236;-37
2022/04/24 07:22:21;;;;;;;4.57;2.67;;;;;;;12.78;67.44;97332.97;4160831;28;20262;-36
2022/04/24 07:24:23;;;;;;;2.50;2.30;;;;;;;12.89;67.02;97326.81;4160613;28;20290;-37
2022/04/24 07:26:25;;;;;;;2.47;2.27;;;;;;;12.80;67.29;97323.69;4161036;28;20290;-34
2022/04/24 07:28:27;;;;;;;2.23;2.13;;;;;;;12.40;69.27;97404.31;4160548;28;20243;-35
2022/04/24 07:30:29;;;;;;;3.43;2.80;;;;;;;12.62;67.48;97345.13;4160566;28;20233;-35
2022/04/24 07:32:41;;;;;;;5.23;3.47;;;;;;;12.74;66.95;97331.78;4160012;28;20233;-36
2022/04/24 07:34:42;;;;;;;4.43;3.13;;;;;;;12.65;68.33;97361.47;4156183;28;20240;-40
2022/04/24 07:36:45;;;;;;;2.80;2.40;;;;;;;12.93;66.96;97329.88;4160610;28;20641;-32
2022/04/24 07:38:46;;;;;;;2.47;2.27;;;;;;;13.08;66.90;97321.34;4160510;28;21114;-34
2022/04/24 07:40:48;;;;;;;2.67;2.43;;;;;;;13.14;66.71;97309.75;4159765;28;20240;-35
2022/04/24 07:42:59;;;;;;;3.23;2.53;;;;;;;13.45;65.70;97271.16;4159018;28;20745;-33
2022/04/24 07:45:00;;;;;;;2.67;2.47;;;;;;;13.48;65.06;97267.97;4160943;28;20244;-36
2022/04/24 07:47:02;;;;;;;3.57;3.23;;;;;;;13.54;65.48;97263.56;4160927;28;20295;-33
2022/04/24 07:49:04;;;;;;;3.30;2.60;;;;;;;13.18;66.81;97316.22;4159639;28;20294;-37
2022/04/24 07:51:06;;;;;;;3.50;2.27;;;;;;;13.24;67.32;97306.50;4157344;28;20294;-38
2022/04/24 07:53:08;;;;;;;3.13;2.80;;;;;;;13.45;65.86;97292.50;4160371;28;20283;-35
2022/04/24 07:55:11;;;;;;;3.67;2.37;;;;;;;13.41;65.72;97286.00;4160341;28;20248;-36
2022/04/24 07:57:13;;;;;;;4.87;2.27;;;;;;;13.45;65.53;97291.69;4155395;28;20717;-39
2022/04/24 07:59:15;;;;;;;3.73;2.40;;;;;;;12.15;70.15;97424.97;4158080;28;20295;-35
2022/04/24 08:01:17;;;;;;;2.47;2.27;;;;;;;11.96;70.37;97441.00;4155063;28;20224;-37
2022/04/24 08:03:19;;;;;;;3.70;2.40;;;;;;;12.35;69.78;97414.84;4160204;28;20713;-38
2022/04/24 08:05:27;;;;;;;2.60;2.30;;;;;;;12.54;68.46;97380.13;4160739;28;20235;-34
2022/04/24 08:07:28;;;;;;;3.10;2.80;;;;;;;12.35;68.64;97409.50;4151939;28;20326;-35
2022/04/24 08:09:30;;;;;;;5.60;2.50;;;;;;;12.58;67.52;97365.31;4157282;28;20834;-36
2022/04/24 08:11:32;;;;;;;2.80;2.13;;;;;;;12.44;68.46;97402.81;4151655;28;20229;-35
2022/04/24 08:13:34;;;;;;;3.00;2.47;;;;;;;12.59;67.78;97373.06;4171741;28;20235;-32
2022/04/24 08:15:37;;;;;;;2.97;2.67;;;;;;;12.92;67.11;97341.56;4155426;28;20228;-33
2022/04/24 08:17:39;;;;;;;3.00;2.70;;;;;;;12.84;67.27;97348.84;4159500;28;20232;-36
2022/04/24 08:19:43;;;;;;;2.80;2.60;;;;;;;13.11;66.33;97332.41;4160194;28;20889;-36
2022/04/24 08:21:44;;;;;;;3.33;2.80;;;;;;;13.37;66.08;97315.03;4159732;28;20839;-33
2022/04/24 08:23:46;;;;;;;2.90;2.30;;;;;;;13.55;65.48;97295.38;4152977;28;20260;-36
2022/04/24 08:25:48;;;;;;;2.73;2.50;;;;;;;13.24;65.80;97320.63;4157414;28;20317;-35
2022/04/24 08:27:52;;;;;;;4.40;2.60;;;;;;;11.96;71.10;97486.25;4153141;28;20877;-35
2022/04/24 08:29:53;;;;;;;2.00;1.87;;;;;;;11.80;71.04;97498.31;4155861;28;20947;-35
2022/04/24 08:31:55;;;;;;;2.20;2.00;;;;;;;12.06;70.25;97464.44;4157003;28;20239;-38
2022/04/24 08:33:57;;;;;;;3.07;2.60;;;;;;;11.78;70.50;97480.91;4159345;28;20967;-32
2022/04/24 08:35:59;;;;;;;2.07;1.90;;;;;;;10.99;73.96;97546.13;4159889;28;20243;-31
2022/04/24 08:38:01;;;;;;;1.97;1.87;;;;;;;11.54;71.08;97484.25;4160011;28;20239;-34
2022/04/24 08:40:05;;;;;;;2.03;1.87;;;;;;;12.16;69.91;97390.13;4155053;28;20233;-36
2022/04/24 08:42:09;;;;;;;3.07;2.10;;;;;;;12.08;69.54;97414.41;4159376;28;20232;-33
2022/04/24 08:44:15;;;;;;;3.03;2.47;;;;;;;11.62;69.47;97445.88;4156491;28;20267;-36
2022/04/24 08:46:17;;;;;;;4.90;3.67;;;;;;;12.11;70.31;97421.94;4171279;22;20294;-33
2022/04/24 08:48:19;;;;;;;2.07;1.93;;;;;;;12.41;68.81;97391.81;4155929;28;20236;-32
2022/04/24 08:50:21;;;;;;;2.33;2.13;;;;;;;12.76;67.60;97353.72;4160593;28;20709;-31
2022/04/24 08:52:24;;;;;;;3.00;2.40;;;;;;;12.91;67.32;97353.28;4160005;28;20662;-31
2022/04/24 08:54:28;;;;;;;2.20;2.00;;;;;;;12.36;68.98;97407.69;4154404;28;20244;-31
2022/04/24 08:56:30;;;;;;;2.73;2.03;;;;;;;12.62;67.57;97377.13;4147622;28;20255;-31
2022/04/24 08:58:32;;;;;;;2.13;1.93;;;;;;;12.94;67.20;97358.16;4154676;28;20229;-33
2022/04/24 09:00:34;;;;;;;2.40;2.20;;;;;;;12.96;66.57;97351.53;4147291;28;20294;-33
2022/04/24 09:02:36;;;;;;;2.77;2.57;;;;;;;12.66;67.75;97389.75;4150460;28;20348;-32
2022/04/24 09:04:39;;;;;;;2.40;2.20;;;;;;;12.85;67.12;97389.66;4148727;28;20283;-32
2022/04/24 09:06:42;;;;;;;2.40;2.20;;;;;;;12.92;67.05;97377.03;4147482;28;20241;-32
2022/04/24 09:08:44;;;;;;;2.80;2.60;;;;;;;12.82;67.80;97396.25;4149689;28;20237;-32
2022/04/24 09:10:59;;;;;;;7.33;3.30;;;;;;;12.32;69.31;97462.44;4149969;28;20327;-30
2022/04/24 09:13:03;;;;;;;3.37;3.07;;;;;;;12.01;69.98;97488.25;4150054;28;20263;-32
2022/04/24 09:15:07;;;;;;;4.60;3.47;;;;;;;12.21;69.96;97461.38;4145466;28;20241;-31
2022/04/24 09:17:19;;;;;;;4.83;2.77;;;;;;;13.01;67.12;97359.66;4152887;28;20302;-30
2022/04/24 09:19:25;;;;;;;3.93;3.20;;;;;;;13.16;66.41;97345.00;4143877;28;20268;-32
2022/04/24 09:21:27;;;;;;;3.57;2.80;;;;;;;13.07;66.82;97362.44;4153201;28;20690;-32
2022/04/24 09:23:36;;;;;;;2.70;2.50;;;;;;;12.56;68.18;97420.69;4146992;28;20244;-32
2022/04/24 09:25:40;;;;;;;4.17;2.10;;;;;;;12.70;68.26;97422.09;4152051;28;20700;-32
2022/04/24 09:27:42;;;;;;;3.30;2.70;;;;;;;12.87;67.83;97406.25;4147301;28;20228;-32
2022/04/24 09:29:51;;;;;;;3.10;2.30;;;;;;;13.02;67.44;97390.59;4147776;28;20244;-32
2022/04/24 09:31:53;;;;;;;2.77;2.33;;;;;;;12.43;68.49;97430.50;4146806;28;20241;-32